Time;durP1;ratioP1;P1;durP2;ratioP2;P2;SDS_P1;SDS_P2;PMS_P1;PMS_P2;Temp;Humidity;BMP_temperature;BMP_pressure;BME280_temperature;BME280_humidity;BME280_pressure;Samples;Min_cycle;Max_cycle;Signal;HPM_P1;HPM_P2
2020/12/21 00:01:52;;;;;;;1.63;1.53;;;5.50;99.90;;;;;;5074609;28;20277;-76
2020/12/21 00:04:18;;;;;;;3.10;2.07;;;5.60;99.90;;;;;;5073484;28;20184;-76
2020/12/21 00:06:43;;;;;;;1.43;1.33;;;5.90;99.90;;;;;;5073578;28;20201;-77
2020/12/21 00:09:09;;;;;;;2.47;1.87;;;5.90;99.90;;;;;;5073234;28;20209;-76
2020/12/21 00:11:39;;;;;;;2.73;2.17;;;5.80;99.90;;;;;;5072426;28;20208;-75
2020/12/21 00:14:07;;;;;;;1.77;1.67;;;5.80;99.90;;;;;;5073393;28;20245;-76
2020/12/21 00:16:41;;;;;;;2.63;1.93;;;5.80;99.90;;;;;;5073909;28;20189;-76
2020/12/21 00:19:08;;;;;;;2.13;1.73;;;5.80;99.90;;;;;;5072864;28;20250;-76
2020/12/21 00:21:35;;;;;;;1.73;1.60;;;5.90;99.90;;;;;;5073635;28;20194;-75
2020/12/21 00:24:00;;;;;;;2.40;1.60;;;5.90;99.90;;;;;;5071576;28;20627;-77
2020/12/21 00:26:26;;;;;;;1.83;1.33;;;5.80;99.90;;;;;;5072707;28;20184;-76
2020/12/21 00:28:52;;;;;;;2.47;2.23;;;5.90;99.90;;;;;;5071899;28;20203;-76
2020/12/21 00:31:30;;;;;;;1.77;1.33;;;5.90;99.90;;;;;;5073383;28;20200;-77
2020/12/21 00:33:57;;;;;;;1.83;1.70;;;5.90;99.90;;;;;;5072959;28;20173;-76
2020/12/21 00:36:23;;;;;;;1.70;1.33;;;6.20;99.90;;;;;;5071282;28;20177;-76
2020/12/21 00:38:49;;;;;;;4.27;1.80;;;6.20;99.90;;;;;;5086021;28;20185;-76
2020/12/21 00:41:17;;;;;;;1.93;1.30;;;6.20;99.90;;;;;;5071700;28;20584;-77
2020/12/21 00:43:45;;;;;;;1.87;1.67;;;6.10;99.90;;;;;;5067678;28;20572;-76
2020/12/21 00:46:31;;;;;;;1.93;1.63;;;6.20;99.90;;;;;;5069698;28;20195;-76
2020/12/21 00:48:59;;;;;;;1.47;1.13;;;6.20;99.90;;;;;;5071120;28;20201;-77
2020/12/21 00:51:25;;;;;;;1.53;1.43;;;6.10;99.90;;;;;;5072657;28;20231;-76
2020/12/21 00:53:51;;;;;;;1.77;1.47;;;6.10;99.90;;;;;;5072774;28;20227;-77
2020/12/21 00:56:21;;;;;;;1.50;1.40;;;6.00;99.90;;;;;;5074080;28;20212;-76
2020/12/21 00:58:47;;;;;;;1.70;1.57;;;5.90;99.90;;;;;;5052778;28;552561;-77
2020/12/21 01:01:17;;;;;;;2.13;1.93;;;5.90;99.90;;;;;;5074935;28;20784;-75
2020/12/21 01:03:43;;;;;;;3.10;2.23;;;6.10;99.90;;;;;;5071823;28;20536;-76
2020/12/21 01:06:09;;;;;;;1.60;1.50;;;6.20;99.90;;;;;;5074439;28;20206;-77
2020/12/21 01:08:35;;;;;;;3.10;2.17;;;6.30;99.90;;;;;;5073437;28;20651;-77
2020/12/21 01:11:01;;;;;;;6.03;2.23;;;6.30;99.90;;;;;;5073690;28;20290;-77
2020/12/21 01:13:27;;;;;;;2.27;1.80;;;6.30;99.90;;;;;;5073821;28;21451;-77
2020/12/21 01:15:52;;;;;;;2.30;1.77;;;6.30;99.90;;;;;;5073902;28;20186;-76
2020/12/21 01:18:18;;;;;;;1.97;1.80;;;6.30;99.90;;;;;;5075178;28;20176;-76
2020/12/21 01:20:44;;;;;;;1.67;1.50;;;6.40;99.90;;;;;;5074652;28;20302;-77
2020/12/21 01:23:10;;;;;;;1.40;1.30;;;6.40;99.90;;;;;;5074079;28;20182;-77
2020/12/21 01:25:37;;;;;;;1.63;1.53;;;6.50;99.90;;;;;;5074959;28;20177;-77
2020/12/21 01:28:04;;;;;;;2.53;1.77;;;6.40;99.90;;;;;;5073855;28;20180;-77
2020/12/21 01:30:29;;;;;;;2.53;1.87;;;6.40;99.90;;;;;;5073888;28;20199;-77
2020/12/21 01:32:55;;;;;;;2.07;1.83;;;6.30;99.90;;;;;;5073399;28;20212;-77
2020/12/21 01:35:20;;;;;;;1.80;1.53;;;6.30;99.90;;;;;;5074898;28;20184;-77
2020/12/21 01:37:46;;;;;;;1.63;1.23;;;6.20;99.90;;;;;;5077239;28;20185;-77
2020/12/21 01:40:11;;;;;;;1.53;1.40;;;6.20;99.90;;;;;;5077157;28;20203;-77
2020/12/21 01:42:37;;;;;;;1.53;1.43;;;6.20;99.90;;;;;;5076188;28;21151;-77
2020/12/21 01:45:08;;;;;;;2.10;1.80;;;6.40;99.90;;;;;;5077510;28;20269;-76
2020/12/21 01:47:34;;;;;;;2.30;1.33;;;6.40;99.90;;;;;;5077816;28;20181;-77
2020/12/21 01:50:01;;;;;;;2.37;1.90;;;6.40;99.90;;;;;;5077383;28;20264;-76
2020/12/21 01:52:26;;;;;;;2.37;1.60;;;6.30;99.90;;;;;;5077137;28;20254;-77
2020/12/21 01:54:52;;;;;;;5.47;1.77;;;6.30;99.90;;;;;;5077332;28;20178;-77
2020/12/21 01:57:18;;;;;;;4.63;1.53;;;6.30;99.90;;;;;;5077518;28;20205;-76
2020/12/21 01:59:44;;;;;;;2.33;1.87;;;6.20;99.90;;;;;;5076192;28;20252;-76
2020/12/21 02:02:11;;;;;;;1.90;1.70;;;6.10;99.90;;;;;;5078448;28;20350;-76
2020/12/21 02:04:37;;;;;;;2.83;2.20;;;6.00;99.90;;;;;;5076318;28;20190;-76
2020/12/21 02:07:03;;;;;;;1.70;1.50;;;5.90;99.90;;;;;;5077042;28;20556;-77
2020/12/21 02:09:29;;;;;;;1.57;1.23;;;6.00;99.90;;;;;;5078536;28;20205;-76
2020/12/21 02:11:55;;;;;;;2.43;1.53;;;5.90;99.90;;;;;;5076825;28;20200;-77
2020/12/21 02:14:21;;;;;;;1.47;1.37;;;5.90;99.90;;;;;;5076259;28;20185;-77
2020/12/21 02:16:47;;;;;;;2.03;1.50;;;5.70;99.90;;;;;;5076345;28;20300;-77
2020/12/21 02:19:13;;;;;;;1.40;1.30;;;5.60;99.90;;;;;;5076210;28;20283;-77
2020/12/21 02:21:38;;;;;;;2.47;1.87;;;5.50;99.90;;;;;;5076344;28;20603;-77
2020/12/21 02:24:05;;;;;;;1.70;1.60;;;5.50;99.90;;;;;;5076357;28;20189;-77
2020/12/21 02:26:31;;;;;;;2.30;2.10;;;5.70;99.90;;;;;;5077074;28;20211;-77
2020/12/21 02:28:59;;;;;;;2.87;1.80;;;5.60;99.90;;;;;;5075623;28;20234;-77
2020/12/21 02:31:25;;;;;;;3.17;2.30;;;5.40;99.90;;;;;;5076543;28;20197;-77
2020/12/21 02:33:51;;;;;;;1.97;1.53;;;5.30;99.90;;;;;;5075769;28;20178;-77
2020/12/21 02:36:17;;;;;;;3.63;2.03;;;5.10;99.90;;;;;;5075390;28;20605;-78
2020/12/21 02:38:42;;;;;;;1.67;1.57;;;5.10;99.90;;;;;;5076643;28;20261;-77
2020/12/21 02:41:12;;;;;;;2.03;1.40;;;5.10;99.90;;;;;;5076727;28;20205;-77
2020/12/21 02:43:37;;;;;;;1.93;1.47;;;5.10;99.90;;;;;;5076479;28;20223;-76
2020/12/21 02:46:09;;;;;;;3.73;2.30;;;4.90;99.90;;;;;;5075556;28;20647;-77
2020/12/21 02:48:35;;;;;;;1.97;1.70;;;4.80;99.90;;;;;;5074514;28;20177;-77
2020/12/21 02:51:01;;;;;;;2.43;1.90;;;4.90;99.90;;;;;;5074724;28;20209;-77
2020/12/21 02:53:26;;;;;;;2.13;1.93;;;4.80;99.90;;;;;;5076936;28;20713;-77
2020/12/21 02:55:53;;;;;;;3.27;2.30;;;4.70;99.90;;;;;;5075499;28;20870;-77
2020/12/21 02:58:18;;;;;;;2.30;2.00;;;4.60;99.90;;;;;;5075274;28;20193;-77
2020/12/21 03:00:44;;;;;;;1.50;1.40;;;4.50;99.90;;;;;;5075755;28;20262;-77
2020/12/21 03:03:09;;;;;;;2.03;1.33;;;4.40;99.90;;;;;;5074075;28;20199;-77
2020/12/21 03:05:35;;;;;;;2.07;1.83;;;4.30;99.90;;;;;;5075929;28;20268;-77
2020/12/21 03:08:03;;;;;;;2.20;1.50;;;4.20;99.90;;;;;;5075762;28;20189;-77
2020/12/21 03:10:28;;;;;;;1.87;1.53;;;4.20;99.90;;;;;;5076481;28;20252;-77
2020/12/21 03:12:54;;;;;;;2.47;2.00;;;4.10;99.90;;;;;;5076236;28;20882;-77
2020/12/21 03:15:20;;;;;;;1.73;1.63;;;4.10;99.90;;;;;;5075351;28;20598;-77
2020/12/21 03:17:46;;;;;;;1.73;1.63;;;4.00;99.90;;;;;;5076070;28;20184;-76
2020/12/21 03:20:11;;;;;;;2.70;1.50;;;4.00;99.90;;;;;;5074399;28;20205;-76
2020/12/21 03:22:37;;;;;;;1.63;1.40;;;3.90;99.90;;;;;;5076467;28;20659;-77
2020/12/21 03:25:03;;;;;;;2.10;1.53;;;3.80;99.90;;;;;;5075936;28;20204;-77
2020/12/21 03:27:29;;;;;;;2.50;1.67;;;3.80;99.90;;;;;;5075045;28;20267;-76
2020/12/21 03:29:55;;;;;;;2.03;1.90;;;3.70;99.90;;;;;;5076059;28;21184;-77
2020/12/21 03:32:20;;;;;;;3.07;1.97;;;3.70;99.90;;;;;;5075627;28;20258;-77
2020/12/21 03:34:46;;;;;;;2.17;1.70;;;3.60;99.90;;;;;;5074926;28;20654;-77
2020/12/21 03:37:11;;;;;;;2.20;1.57;;;3.60;99.90;;;;;;5075740;28;20557;-78
2020/12/21 03:39:37;;;;;;;2.50;1.40;;;3.70;99.90;;;;;;5074904;28;20888;-77
2020/12/21 03:42:03;;;;;;;1.57;1.47;;;3.70;99.90;;;;;;5074929;28;20197;-77
2020/12/21 03:44:30;;;;;;;1.90;1.60;;;3.60;99.90;;;;;;5075766;28;20188;-77
2020/12/21 03:46:55;;;;;;;2.40;1.67;;;3.50;99.90;;;;;;5076226;28;20207;-77
2020/12/21 03:49:21;;;;;;;1.33;1.23;;;3.40;99.90;;;;;;5075377;28;20219;-77
2020/12/21 03:51:46;;;;;;;2.90;2.30;;;3.40;99.90;;;;;;5074373;28;20296;-77
2020/12/21 03:54:12;;;;;;;2.20;1.50;;;3.40;99.90;;;;;;5074606;28;20181;-75
2020/12/21 03:56:41;;;;;;;1.47;1.37;;;3.60;99.90;;;;;;5072388;28;20643;-76
2020/12/21 03:59:07;;;;;;;4.90;1.50;;;3.50;99.90;;;;;;5072841;28;20217;-76
2020/12/21 04:01:33;;;;;;;1.43;1.27;;;3.50;99.90;;;;;;5075520;28;20189;-76
2020/12/21 04:03:58;;;;;;;1.53;1.10;;;3.70;99.90;;;;;;5073539;28;20189;-76
2020/12/21 04:06:24;;;;;;;2.20;1.87;;;3.80;99.90;;;;;;5074714;28;20221;-76
2020/12/21 04:08:49;;;;;;;2.80;1.90;;;3.70;99.90;;;;;;5075818;28;20177;-76
2020/12/21 04:11:15;;;;;;;2.00;1.40;;;3.60;99.90;;;;;;5075260;28;20219;-76
2020/12/21 04:13:40;;;;;;;2.10;1.70;;;3.60;99.90;;;;;;5075496;28;20246;-77
2020/12/21 04:16:06;;;;;;;2.70;1.87;;;3.60;99.90;;;;;;5074249;28;20185;-76
2020/12/21 04:18:31;;;;;;;3.30;1.90;;;3.60;99.90;;;;;;5074652;28;20176;-75
2020/12/21 04:20:57;;;;;;;1.50;1.40;;;3.60;99.90;;;;;;5073952;28;21104;-77
2020/12/21 04:23:23;;;;;;;2.20;1.80;;;3.50;99.90;;;;;;5074741;28;20184;-76
2020/12/21 04:25:49;;;;;;;2.63;1.73;;;3.40;99.90;;;;;;5075177;28;20189;-76
2020/12/21 04:28:15;;;;;;;2.07;1.87;;;3.40;99.90;;;;;;5075068;28;20242;-76
2020/12/21 04:30:41;;;;;;;1.47;1.23;;;3.30;99.90;;;;;;5074248;28;20201;-75
2020/12/21 04:33:06;;;;;;;1.97;1.40;;;3.20;99.90;;;;;;5074563;28;20204;-76
2020/12/21 04:35:32;;;;;;;1.63;1.53;;;3.10;99.90;;;;;;5074055;28;20617;-76
2020/12/21 04:37:57;;;;;;;2.77;1.83;;;3.00;99.90;;;;;;5075133;28;20181;-75
2020/12/21 04:40:23;;;;;;;2.87;1.73;;;3.00;99.90;;;;;;5076054;28;20213;-75
2020/12/21 04:42:56;;;;;;;2.27;1.87;;;2.90;99.90;;;;;;5074157;28;20738;-76
2020/12/21 04:45:21;;;;;;;1.73;1.50;;;2.80;99.90;;;;;;5074734;28;20602;-76
2020/12/21 04:47:47;;;;;;;1.27;1.17;;;2.80;99.90;;;;;;5074153;28;20238;-76
2020/12/21 04:50:14;;;;;;;2.10;1.63;;;2.80;99.90;;;;;;5073167;28;20690;-76
2020/12/21 04:52:49;;;;;;;2.13;1.50;;;2.80;99.90;;;;;;5074489;28;20780;-76
2020/12/21 04:55:22;;;;;;;3.00;1.40;;;2.90;99.90;;;;;;5074006;28;20316;-76
2020/12/21 04:57:57;;;;;;;1.93;1.40;;;2.90;99.90;;;;;;5074302;28;20181;-76
2020/12/21 05:00:24;;;;;;;1.77;1.60;;;3.30;99.90;;;;;;5074000;28;20212;-77
2020/12/21 05:02:49;;;;;;;1.50;1.40;;;3.40;99.90;;;;;;5074560;28;20272;-76
2020/12/21 05:05:39;;;;;;;1.83;1.73;;;3.50;99.90;;;;;;5075230;28;20587;-76
2020/12/21 05:08:11;;;;;;;2.07;1.57;;;3.50;99.90;;;;;;5073048;28;20247;-76
2020/12/21 05:10:38;;;;;;;2.67;2.10;;;3.70;99.90;;;;;;5074953;28;20219;-76
2020/12/21 05:13:04;;;;;;;1.90;1.70;;;3.80;99.90;;;;;;5078357;28;20213;-76
2020/12/21 05:15:30;;;;;;;2.27;1.83;;;3.70;99.90;;;;;;5075488;28;20176;-76
2020/12/21 05:18:08;;;;;;;2.03;1.77;;;3.70;99.90;;;;;;5075917;28;20181;-77
2020/12/21 05:20:35;;;;;;;3.57;2.20;;;3.70;99.90;;;;;;5078469;28;20215;-76
2020/12/21 05:23:03;;;;;;;2.13;1.90;;;3.90;99.90;;;;;;5077270;28;20188;-73
2020/12/21 05:25:28;;;;;;;3.03;2.43;;;4.10;99.90;;;;;;5079065;28;20181;-76
2020/12/21 05:27:54;;;;;;;1.87;1.47;;;4.00;99.90;;;;;;5076750;28;20208;-77
2020/12/21 05:30:20;;;;;;;3.10;1.97;;;3.90;99.90;;;;;;5075933;28;20213;-76
2020/12/21 05:32:45;;;;;;;3.00;2.20;;;3.80;99.90;;;;;;5077593;28;20285;-77
2020/12/21 05:35:14;;;;;;;5.73;2.47;;;3.80;99.90;;;;;;5077343;28;20578;-71
2020/12/21 05:37:39;;;;;;;3.53;2.43;;;3.80;99.90;;;;;;5075623;28;20626;-76
2020/12/21 05:40:07;;;;;;;2.87;2.27;;;3.70;99.90;;;;;;5072471;28;20213;-75
2020/12/21 05:42:34;;;;;;;2.57;1.20;;;3.60;99.90;;;;;;5078729;28;20381;-77
2020/12/21 05:45:05;;;;;;;2.20;1.60;;;3.50;99.90;;;;;;5064404;28;20193;-76
2020/12/21 05:47:30;;;;;;;3.30;2.33;;;3.40;99.90;;;;;;5072740;28;20287;-76
2020/12/21 05:50:06;;;;;;;2.90;1.90;;;3.30;99.90;;;;;;5080992;28;20711;-76
2020/12/21 05:52:34;;;;;;;2.60;2.33;;;3.30;99.90;;;;;;5071947;28;20288;-76
2020/12/21 05:55:04;;;;;;;2.47;2.20;;;3.30;99.90;;;;;;5065187;28;20444;-76
2020/12/21 05:57:31;;;;;;;1.77;1.50;;;3.30;99.90;;;;;;5076412;28;20586;-77
2020/12/21 05:59:58;;;;;;;2.60;1.87;;;3.20;99.90;;;;;;5070948;28;20221;-76
2020/12/21 06:02:25;;;;;;;2.03;1.83;;;3.20;99.90;;;;;;5076342;28;20503;-76
2020/12/21 06:05:04;;;;;;;2.60;2.40;;;3.10;99.90;;;;;;5076542;28;20182;-76
2020/12/21 06:07:32;;;;;;;3.03;2.43;;;3.10;99.90;;;;;;5073380;28;20192;-77
2020/12/21 06:09:59;;;;;;;3.10;2.33;;;3.00;99.90;;;;;;5071679;28;20551;-76
2020/12/21 06:12:28;;;;;;;2.90;1.93;;;3.00;99.90;;;;;;5067906;28;20700;-77
2020/12/21 06:14:59;;;;;;;1.70;1.60;;;3.00;99.90;;;;;;5069661;28;20208;-77
2020/12/21 06:17:25;;;;;;;3.27;2.07;;;2.90;99.90;;;;;;5068101;28;20177;-77
2020/12/21 06:20:02;;;;;;;3.07;1.83;;;2.90;99.90;;;;;;5073491;28;20734;-77
2020/12/21 06:22:27;;;;;;;1.83;1.73;;;2.70;99.90;;;;;;5077419;28;20211;-76
2020/12/21 06:24:53;;;;;;;1.77;1.63;;;2.70;99.90;;;;;;5073542;28;20181;-76
2020/12/21 06:27:18;;;;;;;2.60;1.83;;;2.70;99.90;;;;;;5074254;28;20195;-77
2020/12/21 06:29:44;;;;;;;3.27;2.20;;;2.60;99.90;;;;;;5073492;28;20216;-75
2020/12/21 06:32:10;;;;;;;1.83;1.60;;;2.60;99.90;;;;;;5075549;28;20324;-77
2020/12/21 06:34:39;;;;;;;2.93;2.10;;;2.70;99.90;;;;;;5077831;28;20186;-76
2020/12/21 06:37:15;;;;;;;2.50;1.90;;;2.80;99.90;;;;;;5076785;28;20177;-76
2020/12/21 06:39:41;;;;;;;2.67;1.93;;;2.90;99.90;;;;;;5072228;28;20220;-76
2020/12/21 06:42:13;;;;;;;2.30;1.83;;;3.00;99.90;;;;;;5072676;28;20299;-77
2020/12/21 06:44:40;;;;;;;2.00;1.70;;;3.20;99.90;;;;;;5068267;28;20189;-75
2020/12/21 06:47:07;;;;;;;2.53;1.90;;;3.20;99.90;;;;;;5076321;28;20181;-77
2020/12/21 06:49:33;;;;;;;3.37;2.20;;;3.10;99.90;;;;;;5066602;28;20216;-76
2020/12/21 06:51:59;;;;;;;1.90;1.73;;;3.10;99.90;;;;;;5071689;28;20212;-77
2020/12/21 06:54:25;;;;;;;1.23;1.10;;;3.00;99.90;;;;;;5072549;28;20181;-76
2020/12/21 06:56:51;;;;;;;1.50;1.10;;;3.00;99.90;;;;;;5076954;28;20181;-76
2020/12/21 06:59:21;;;;;;;2.33;2.10;;;2.90;99.90;;;;;;5072147;28;20212;-77
2020/12/21 07:01:49;;;;;;;4.17;1.77;;;2.90;99.90;;;;;;5077121;28;20520;-77
2020/12/21 07:04:30;;;;;;;1.33;1.23;;;2.90;99.90;;;;;;5071358;28;20240;-76
2020/12/21 07:06:56;;;;;;;1.77;1.67;;;2.90;99.90;;;;;;5065516;28;20904;-76
2020/12/21 07:09:26;;;;;;;1.63;1.20;;;2.90;99.90;;;;;;5076842;28;20471;-77
2020/12/21 07:11:59;;;;;;;1.77;1.63;;;2.80;99.90;;;;;;5069444;28;20288;-77
2020/12/21 07:14:26;;;;;;;1.73;1.37;;;2.70;99.90;;;;;;5073908;28;20202;-77
2020/12/21 07:17:08;;;;;;;2.17;1.60;;;2.70;99.90;;;;;;5072202;28;20593;-77
2020/12/21 07:19:36;;;;;;;2.33;2.13;;;2.60;99.90;;;;;;5069622;28;20263;-76
2020/12/21 07:22:04;;;;;;;2.53;2.00;;;2.60;99.90;;;;;;5078061;28;20181;-77
2020/12/21 07:24:30;;;;;;;3.93;3.20;;;2.50;99.90;;;;;;5065235;28;20276;-77
2020/12/21 07:26:56;;;;;;;3.27;1.87;;;2.50;99.90;;;;;;5072388;28;20268;-75
2020/12/21 07:29:22;;;;;;;2.77;2.47;;;2.50;99.90;;;;;;5067701;28;20777;-76
2020/12/21 07:31:48;;;;;;;2.60;1.63;;;2.50;99.90;;;;;;5072947;28;20215;-77
2020/12/21 07:34:14;;;;;;;5.73;2.03;;;2.40;99.90;;;;;;5074413;28;20182;-76
2020/12/21 07:36:40;;;;;;;1.97;1.70;;;2.40;99.90;;;;;;5073679;28;20185;-76
2020/12/21 07:39:14;;;;;;;3.07;2.57;;;2.40;99.90;;;;;;5072624;28;20177;-76
2020/12/21 07:41:47;;;;;;;2.23;1.93;;;2.40;99.90;;;;;;5060504;28;20230;-77
2020/12/21 07:44:20;;;;;;;1.67;1.57;;;2.30;99.90;;;;;;5074491;28;20181;-77
2020/12/21 07:46:55;;;;;;;2.53;1.83;;;2.30;99.90;;;;;;5073387;28;20715;-78
2020/12/21 07:49:22;;;;;;;2.73;1.57;;;2.50;99.90;;;;;;5075662;28;20690;-79
2020/12/21 07:51:48;;;;;;;1.40;1.30;;;2.50;99.90;;;;;;5075754;28;20295;-77
2020/12/21 07:54:14;;;;;;;3.27;1.97;;;2.60;99.90;;;;;;5076104;28;20289;-77
2020/12/21 07:56:40;;;;;;;1.80;1.60;;;2.60;99.90;;;;;;5076571;28;21192;-76
2020/12/21 07:59:17;;;;;;;1.90;1.50;;;2.60;99.90;;;;;;5077139;28;20260;-77
2020/12/21 08:01:44;;;;;;;1.63;1.33;;;2.70;99.90;;;;;;5116201;22;21175;-81
2020/12/21 08:04:17;;;;;;;2.07;1.20;;;2.70;99.90;;;;;;5089600;28;20196;-83
2020/12/21 08:06:44;;;;;;;1.30;1.20;;;2.80;99.90;;;;;;5082340;28;20173;-81
2020/12/21 08:09:10;;;;;;;1.90;1.20;;;2.80;99.90;;;;;;5083285;28;20191;-85
2020/12/21 08:11:37;;;;;;;1.83;1.50;;;2.80;99.90;;;;;;5092225;28;20220;-86
2020/12/21 08:14:03;;;;;;;2.47;1.50;;;2.80;99.90;;;;;;5072742;28;20186;-82
2020/12/21 08:16:29;;;;;;;1.80;1.30;;;2.90;99.90;;;;;;5077205;28;20191;-84
2020/12/21 08:18:55;;;;;;;1.53;1.30;;;3.00;99.90;;;;;;5078425;28;20178;-84
2020/12/21 08:21:24;;;;;;;1.50;1.40;;;3.10;99.90;;;;;;5076264;28;20189;-83
2020/12/21 08:23:54;;;;;;;2.20;2.00;;;3.20;99.90;;;;;;5074464;28;20694;-81
2020/12/21 08:26:22;;;;;;;2.50;1.53;;;3.20;99.90;;;;;;5075327;28;20207;-83
2020/12/21 08:28:51;;;;;;;7.17;2.40;;;3.30;99.90;;;;;;5079903;28;20187;-80
2020/12/21 08:31:21;;;;;;;2.03;1.63;;;3.40;99.90;;;;;;5072228;28;20655;-82
2020/12/21 08:34:03;;;;;;;1.60;1.03;;;3.40;99.90;;;;;;5070257;28;20857;-82
2020/12/21 08:36:36;;;;;;;2.60;1.20;;;3.50;99.90;;;;;;5074654;28;20253;-85
2020/12/21 08:39:17;;;;;;;3.07;1.20;;;3.60;99.90;;;;;;5073965;28;20257;-82
2020/12/21 08:41:53;;;;;;;1.27;1.17;;;3.60;99.90;;;;;;5073610;28;20872;-83
2020/12/21 08:44:21;;;;;;;2.43;1.90;;;3.60;99.90;;;;;;5078761;28;20385;-83
2020/12/21 08:46:48;;;;;;;1.13;1.03;;;3.70;99.90;;;;;;5082790;28;20188;-83
2020/12/21 08:49:14;;;;;;;1.53;1.13;;;3.70;99.90;;;;;;5087116;28;20670;-82
2020/12/21 08:51:40;;;;;;;1.67;1.40;;;3.80;99.90;;;;;;5082981;28;20205;-84
2020/12/21 08:54:05;;;;;;;1.17;1.07;;;3.80;99.90;;;;;;5084965;28;20208;-84
2020/12/21 08:56:31;;;;;;;1.97;1.53;;;3.80;99.90;;;;;;5086281;28;20177;-84
2020/12/21 08:58:57;;;;;;;2.37;1.80;;;3.90;99.90;;;;;;5082294;28;20185;-85
2020/12/21 09:01:22;;;;;;;2.33;1.63;;;3.90;99.90;;;;;;5087262;28;20655;-84
2020/12/21 09:03:48;;;;;;;1.77;1.33;;;4.00;99.90;;;;;;5084596;28;20212;-83
2020/12/21 09:06:21;;;;;;;1.40;1.10;;;4.00;99.90;;;;;;5086377;28;20231;-86
2020/12/21 09:08:48;;;;;;;2.27;1.40;;;4.10;99.90;;;;;;5087156;28;20280;-83
2020/12/21 09:11:18;;;;;;;1.70;1.27;;;4.10;99.90;;;;;;5086828;28;20185;-82
2020/12/21 09:13:44;;;;;;;1.40;1.30;;;4.20;99.90;;;;;;5091358;28;20185;-86
2020/12/21 09:16:10;;;;;;;1.17;0.90;;;4.30;99.90;;;;;;5083216;28;20173;-84
2020/12/21 09:18:35;;;;;;;1.60;0.83;;;4.40;99.90;;;;;;5084051;28;20227;-85
2020/12/21 09:21:02;;;;;;;1.70;1.43;;;4.50;99.90;;;;;;5091958;28;20354;-84
2020/12/21 09:23:28;;;;;;;1.70;1.23;;;4.70;99.90;;;;;;5084677;28;20231;-82
2020/12/21 09:25:53;;;;;;;1.33;1.23;;;4.70;99.90;;;;;;5086002;28;20396;-82
2020/12/21 09:28:19;;;;;;;1.40;1.30;;;4.80;99.90;;;;;;5083240;28;20185;-82
2020/12/21 09:30:44;;;;;;;1.97;1.30;;;4.80;99.90;;;;;;5087024;28;20189;-83
2020/12/21 09:33:10;;;;;;;0.70;0.70;;;5.00;99.90;;;;;;5085997;28;20601;-84
2020/12/21 09:35:35;;;;;;;1.80;1.43;;;5.10;99.90;;;;;;5086098;28;20235;-85
2020/12/21 09:38:01;;;;;;;1.27;1.00;;;5.30;99.90;;;;;;5085462;28;20206;-84
2020/12/21 09:40:26;;;;;;;1.20;1.10;;;5.50;99.90;;;;;;5083322;28;20549;-83
2020/12/21 09:42:52;;;;;;;2.83;1.53;;;5.70;99.90;;;;;;5083655;28;20292;-84
2020/12/21 09:45:18;;;;;;;1.57;1.27;;;5.90;99.90;;;;;;5087825;28;20342;-85
2020/12/21 09:47:45;;;;;;;3.40;1.50;;;6.00;99.90;;;;;;5086281;28;20197;-85
2020/12/21 09:50:11;;;;;;;2.23;1.40;;;6.20;99.90;;;;;;5084246;28;20196;-83
2020/12/21 09:52:37;;;;;;;1.33;1.10;;;6.30;99.90;;;;;;5084272;28;20228;-82
2020/12/21 09:55:03;;;;;;;2.03;1.50;;;6.40;99.90;;;;;;5092418;28;20181;-83
2020/12/21 09:57:28;;;;;;;5.80;1.80;;;6.40;99.90;;;;;;5086906;28;20272;-84
2020/12/21 09:59:54;;;;;;;1.77;1.57;;;6.50;99.90;;;;;;5082911;28;20228;-84
2020/12/21 10:02:20;;;;;;;2.03;1.50;;;6.60;99.90;;;;;;5089359;28;20231;-84
2020/12/21 10:04:46;;;;;;;0.87;0.87;;;6.60;99.90;;;;;;5082499;28;20236;-82
2020/12/21 10:07:11;;;;;;;1.03;0.83;;;6.60;99.90;;;;;;5078104;28;20193;-83
2020/12/21 10:09:37;;;;;;;1.37;1.27;;;6.70;99.90;;;;;;5086931;28;20280;-84
2020/12/21 10:12:03;;;;;;;1.57;0.90;;;6.70;99.90;;;;;;5079281;28;20843;-84
2020/12/21 10:14:28;;;;;;;1.20;1.10;;;6.80;99.90;;;;;;5080082;28;20185;-84
2020/12/21 10:16:54;;;;;;;0.87;0.80;;;6.80;99.90;;;;;;5087608;28;20211;-83
2020/12/21 10:19:20;;;;;;;1.40;0.83;;;6.80;99.90;;;;;;5089745;28;20260;-84
2020/12/21 10:21:46;;;;;;;1.00;0.90;;;6.80;99.90;;;;;;5087018;28;20576;-83
2020/12/21 10:24:12;;;;;;;1.30;1.20;;;6.80;99.90;;;;;;5082740;28;20176;-82
2020/12/21 10:26:39;;;;;;;0.83;0.83;;;6.80;99.90;;;;;;5082210;28;20665;-84
2020/12/21 10:29:04;;;;;;;0.70;0.70;;;6.90;99.90;;;;;;5080532;28;20200;-85
2020/12/21 10:31:30;;;;;;;2.17;1.23;;;7.00;99.90;;;;;;5085048;28;20197;-84
2020/12/21 10:33:55;;;;;;;2.53;1.40;;;7.10;99.90;;;;;;5086354;28;20189;-85
2020/12/21 10:36:21;;;;;;;0.90;0.80;;;7.10;99.90;;;;;;5082067;28;20190;-84
2020/12/21 10:38:47;;;;;;;1.10;1.00;;;7.10;99.90;;;;;;5080806;28;20254;-84
2020/12/21 10:41:13;;;;;;;1.03;0.93;;;7.20;99.90;;;;;;5083946;28;20208;-84
2020/12/21 10:43:38;;;;;;;0.70;0.70;;;7.20;99.90;;;;;;5079126;28;20674;-84
2020/12/21 10:46:04;;;;;;;0.60;0.60;;;7.10;99.90;;;;;;5080161;28;20182;-83
2020/12/21 10:48:30;;;;;;;2.63;1.97;;;7.10;99.90;;;;;;5087079;28;20212;-84
2020/12/21 10:50:55;;;;;;;1.73;1.57;;;6.90;99.90;;;;;;5085646;28;20189;-86
2020/12/21 10:53:22;;;;;;;0.80;0.80;;;6.80;99.90;;;;;;5085978;28;20212;-86
2020/12/21 10:55:47;;;;;;;1.20;1.10;;;6.80;99.90;;;;;;5085732;28;20202;-85
2020/12/21 10:58:13;;;;;;;3.87;1.50;;;6.80;99.90;;;;;;5083063;28;20189;-84
2020/12/21 11:00:39;;;;;;;2.13;1.10;;;6.90;99.90;;;;;;5084769;28;20630;-83
2020/12/21 11:03:05;;;;;;;0.70;0.60;;;7.00;99.90;;;;;;5081546;28;20225;-84
2020/12/21 11:05:31;;;;;;;1.80;0.90;;;7.00;99.90;;;;;;5089477;28;20191;-82
2020/12/21 11:07:57;;;;;;;2.10;1.30;;;7.00;99.90;;;;;;5085190;28;20198;-84
2020/12/21 11:10:22;;;;;;;0.83;0.83;;;7.00;99.90;;;;;;5080303;28;20190;-83
2020/12/21 11:12:48;;;;;;;1.17;1.07;;;7.00;99.90;;;;;;5086403;28;20278;-83
2020/12/21 11:15:13;;;;;;;2.50;0.73;;;7.00;99.90;;;;;;5085849;28;20279;-85
2020/12/21 11:17:39;;;;;;;1.00;0.80;;;6.90;99.90;;;;;;5084127;28;20518;-85
2020/12/21 11:20:04;;;;;;;0.77;0.77;;;6.80;99.90;;;;;;5083478;28;20181;-81
2020/12/21 11:22:30;;;;;;;0.67;0.67;;;6.70;99.90;;;;;;5081053;28;20213;-86
2020/12/21 11:24:56;;;;;;;1.30;0.80;;;6.60;99.90;;;;;;5086445;28;20195;-82
2020/12/21 11:27:22;;;;;;;1.13;0.87;;;6.50;99.90;;;;;;5088014;28;20201;-85
2020/12/21 11:29:48;;;;;;;1.03;1.03;;;6.50;99.90;;;;;;5089719;28;20181;-85
2020/12/21 11:32:13;;;;;;;0.90;0.77;;;6.40;99.90;;;;;;5082553;28;20718;-81
2020/12/21 11:34:39;;;;;;;1.33;1.00;;;6.40;99.90;;;;;;5084587;28;20227;-83
2020/12/21 11:37:04;;;;;;;1.73;1.00;;;6.50;99.90;;;;;;5082807;28;20238;-82
2020/12/21 11:39:30;;;;;;;1.63;0.87;;;6.50;99.90;;;;;;5080103;28;20196;-82
2020/12/21 11:41:55;;;;;;;1.23;1.00;;;6.60;99.90;;;;;;5081550;28;20755;-81
2020/12/21 11:44:21;;;;;;;1.30;1.20;;;6.60;99.90;;;;;;5083776;28;20188;-84
2020/12/21 11:46:47;;;;;;;1.70;1.13;;;6.60;99.90;;;;;;5079717;28;20662;-83
2020/12/21 11:49:12;;;;;;;1.07;0.97;;;6.60;99.90;;;;;;5081578;28;20182;-86
2020/12/21 11:51:38;;;;;;;1.30;1.20;;;6.70;99.90;;;;;;5088505;28;20220;-83
2020/12/21 11:54:03;;;;;;;1.23;0.70;;;6.70;99.90;;;;;;5085313;28;20189;-84
2020/12/21 11:56:29;;;;;;;4.30;1.70;;;6.70;99.90;;;;;;5082713;28;20186;-84
2020/12/21 11:58:54;;;;;;;0.93;0.87;;;6.80;99.90;;;;;;5086637;28;20181;-84
2020/12/21 12:01:20;;;;;;;1.03;0.80;;;6.90;99.90;;;;;;5082832;28;20276;-85
2020/12/21 12:03:46;;;;;;;4.83;1.00;;;6.90;99.90;;;;;;5083415;28;20181;-83
2020/12/21 12:06:11;;;;;;;0.70;0.70;;;7.00;99.90;;;;;;5087263;28;20185;-83
2020/12/21 12:08:37;;;;;;;1.30;1.00;;;7.00;99.90;;;;;;5083597;28;20652;-84
2020/12/21 12:11:03;;;;;;;2.60;1.30;;;7.00;99.90;;;;;;5081234;28;20195;-85
2020/12/21 12:13:29;;;;;;;0.73;0.73;;;7.10;99.90;;;;;;5087275;28;20216;-83
2020/12/21 12:15:54;;;;;;;1.10;1.00;;;7.00;99.90;;;;;;5086035;28;20182;-83
2020/12/21 12:18:20;;;;;;;1.43;1.00;;;7.00;99.90;;;;;;5082283;28;20215;-82
2020/12/21 12:20:46;;;;;;;1.03;0.60;;;7.00;99.90;;;;;;5089918;28;20185;-82
2020/12/21 12:23:11;;;;;;;2.47;1.17;;;6.90;99.90;;;;;;5079269;28;20606;-84
2020/12/21 12:25:37;;;;;;;3.80;1.07;;;6.90;99.90;;;;;;5084380;28;20181;-85
2020/12/21 12:28:03;;;;;;;1.10;0.73;;;6.80;99.90;;;;;;5085395;28;20194;-83
2020/12/21 12:30:28;;;;;;;2.30;0.87;;;6.70;99.90;;;;;;5084150;28;20631;-82
2020/12/21 12:32:54;;;;;;;1.27;1.00;;;6.70;99.90;;;;;;5082395;28;20211;-84
2020/12/21 12:35:20;;;;;;;1.63;0.80;;;6.60;99.90;;;;;;5082222;28;20585;-84
2020/12/21 12:37:45;;;;;;;0.80;0.80;;;6.60;99.90;;;;;;5081238;28;20261;-84
2020/12/21 12:40:11;;;;;;;1.10;1.00;;;6.50;99.90;;;;;;5084657;28;20588;-82
2020/12/21 12:42:36;;;;;;;1.80;1.23;;;6.50;99.90;;;;;;5081639;28;20212;-83
2020/12/21 12:45:03;;;;;;;0.83;0.80;;;6.50;99.90;;;;;;5082431;28;20185;-83
2020/12/21 12:47:28;;;;;;;1.30;0.90;;;6.40;99.90;;;;;;5082398;28;20196;-83
2020/12/21 12:49:54;;;;;;;2.83;1.07;;;6.40;99.90;;;;;;5081851;28;20180;-84
2020/12/21 12:52:19;;;;;;;0.73;0.73;;;6.30;99.90;;;;;;5081881;28;20225;-86
2020/12/21 12:54:45;;;;;;;0.90;0.90;;;6.20;99.90;;;;;;5084867;28;20181;-87
2020/12/21 12:57:10;;;;;;;1.13;0.90;;;6.30;99.90;;;;;;5084821;28;20185;-83